Time;durP1;ratioP1;P1;durP2;ratioP2;P2;SDS_P1;SDS_P2;PMS_P1;PMS_P2;Temp;Humidity;BMP_temperature;BMP_pressure;BME280_temperature;BME280_humidity;BME280_pressure;Samples;Min_cycle;Max_cycle;Signal;HPM_P1;HPM_P2
2021/08/12 00:02:03;;;;;;;12.00;6.93;;;;;;;19.68;59.26;93761.00;5069787;28;20099;-53
2021/08/12 00:04:29;;;;;;;10.88;7.47;;;;;;;19.64;59.62;93762.84;5069693;28;20020;-54
2021/08/12 00:06:55;;;;;;;7.22;6.53;;;;;;;19.59;59.63;93766.72;5069991;28;20025;-50
2021/08/12 00:09:20;;;;;;;9.85;7.50;;;;;;;19.49;60.09;93769.56;5069922;28;20035;-51
2021/08/12 00:11:47;;;;;;;11.48;7.78;;;;;;;19.49;59.84;93771.66;5069576;28;20456;-50
2021/08/12 00:14:12;;;;;;;9.50;6.88;;;;;;;19.52;60.01;93778.84;5069854;28;20022;-49
2021/08/12 00:16:38;;;;;;;8.38;7.47;;;;;;;19.42;60.02;93767.72;5069481;28;20021;-50
2021/08/12 00:19:04;;;;;;;13.35;8.23;;;;;;;19.40;60.46;93775.25;5069488;28;20028;-52
2021/08/12 00:21:30;;;;;;;12.20;7.72;;;;;;;19.40;60.11;93778.78;5072454;28;20035;-50
2021/08/12 00:23:56;;;;;;;8.85;7.63;;;;;;;19.33;60.52;93776.13;5073594;28;20035;-47
2021/08/12 00:26:22;;;;;;;9.95;7.28;;;;;;;19.30;60.69;93778.06;5073673;28;20016;-54
2021/08/12 00:28:47;;;;;;;9.00;7.40;;;;;;;19.34;60.56;93780.41;5073496;28;20036;-57
2021/08/12 00:31:13;;;;;;;9.10;7.80;;;;;;;19.30;60.82;93777.31;5073382;28;20039;-57
2021/08/12 00:33:38;;;;;;;12.18;7.55;;;;;;;19.40;60.50;93781.59;5073418;28;20024;-50
2021/08/12 00:36:04;;;;;;;9.60;7.68;;;;;;;19.24;60.80;93780.47;5073759;28;20035;-49
2021/08/12 00:38:29;;;;;;;7.25;6.35;;;;;;;19.32;60.44;93786.59;5073432;28;20539;-48
2021/08/12 00:40:55;;;;;;;11.50;7.07;;;;;;;19.22;60.52;93780.31;5073644;28;20029;-57
2021/08/12 00:43:21;;;;;;;11.02;7.35;;;;;;;19.18;60.87;93784.91;5073290;28;20025;-54
2021/08/12 00:45:46;;;;;;;13.50;7.82;;;;;;;19.13;61.26;93789.50;5073221;28;20056;-55
2021/08/12 00:48:12;;;;;;;12.15;7.63;;;;;;;19.03;61.40;93783.22;5073443;28;20024;-55
2021/08/12 00:50:41;;;;;;;9.52;7.45;;;;;;;18.95;61.03;93756.75;5073430;28;20034;-55
2021/08/12 00:53:07;;;;;;;9.52;7.45;;;;;;;19.01;61.00;93759.97;5073470;28;20445;-57
2021/08/12 00:55:32;;;;;;;8.23;7.38;;;;;;;19.08;61.30;93790.56;5073072;28;20032;-57
2021/08/12 00:57:59;;;;;;;8.30;7.32;;;;;;;19.02;61.34;93776.16;5073057;28;20236;-57
2021/08/12 01:00:24;;;;;;;8.10;7.20;;;;;;;19.09;61.18;93777.31;5072068;28;20020;-56
2021/08/12 01:02:50;;;;;;;8.88;7.47;;;;;;;19.09;61.13;93772.44;5073210;28;20408;-56
2021/08/12 01:05:17;;;;;;;8.52;7.32;;;;;;;19.07;61.22;93774.38;5073121;28;20499;-56
2021/08/12 01:08:12;;;;;;;9.90;6.93;;;;;;;19.03;60.89;93776.91;5072807;28;20033;-56
2021/08/12 01:10:45;;;;;;;9.63;7.57;;;;;;;18.90;61.61;93773.28;5073125;28;20464;-56
2021/08/12 01:13:16;;;;;;;8.40;7.40;;;;;;;18.82;62.05;93777.56;5062840;28;20068;-57
2021/08/12 01:15:45;;;;;;;11.55;8.60;;;;;;;18.78;62.18;93772.44;5072594;28;20038;-53
2021/08/12 01:18:31;;;;;;;10.02;7.57;;;;;;;18.70;62.26;93774.69;5055195;28;20181;-50
2021/08/12 01:21:14;;;;;;;9.85;7.25;;;;;;;18.64;62.39;93770.72;5072825;28;20048;-51
2021/08/12 01:23:39;;;;;;;9.40;7.53;;;;;;;18.57;62.30;93763.25;5054807;28;20035;-54
2021/08/12 01:26:05;;;;;;;9.73;7.55;;;;;;;18.40;63.21;93778.13;5072746;28;20413;-54
2021/08/12 01:28:38;;;;;;;9.48;6.75;;;;;;;18.29;63.92;93773.16;5072795;28;20025;-56
2021/08/12 01:31:23;;;;;;;9.32;7.63;;;;;;;18.14;64.16;93770.69;5054933;28;20031;-55
2021/08/12 01:33:57;;;;;;;9.25;7.70;;;;;;;18.16;64.18;93759.66;5054489;28;20040;-56
2021/08/12 01:36:23;;;;;;;14.05;8.45;;;;;;;18.20;64.40;93768.31;5072305;28;20497;-56
2021/08/12 01:38:50;;;;;;;10.63;7.93;;;;;;;18.18;64.43;93770.97;5054475;28;20036;-51
2021/08/12 01:41:16;;;;;;;9.93;7.75;;;;;;;18.17;64.86;93766.69;5054599;28;20013;-57
2021/08/12 01:43:42;;;;;;;11.05;8.13;;;;;;;18.16;64.76;93757.59;5072381;28;20063;-56
2021/08/12 01:46:08;;;;;;;9.57;7.50;;;;;;;18.36;64.22;93761.09;5072399;28;20498;-53
2021/08/12 01:48:33;;;;;;;10.40;7.45;;;;;;;18.40;63.63;93757.81;5072153;28;20482;-49
2021/08/12 01:50:59;;;;;;;8.98;7.20;;;;;;;18.33;64.00;93761.50;5054184;28;20043;-49
2021/08/12 01:53:25;;;;;;;9.52;7.15;;;;;;;18.42;63.54;93758.72;5070996;28;20035;-49
2021/08/12 01:55:51;;;;;;;9.65;7.65;;;;;;;18.26;64.29;93749.19;5072149;28;20054;-58
2021/08/12 01:58:19;;;;;;;10.88;7.80;;;;;;;18.21;63.91;93747.44;5054313;28;20028;-51
2021/08/12 02:00:47;;;;;;;9.27;7.47;;;;;;;18.21;63.90;93743.91;5054028;28;20028;-51
2021/08/12 02:03:14;;;;;;;8.93;7.13;;;;;;;18.28;63.97;93754.19;5071859;28;20060;-53
2021/08/12 02:05:39;;;;;;;11.23;7.40;;;;;;;18.44;63.24;93749.72;5053819;28;20052;-57
2021/08/12 02:08:05;;;;;;;7.90;7.10;;;;;;;18.46;63.53;93747.09;5054214;28;20506;-53
2021/08/12 02:10:31;;;;;;;7.70;6.90;;;;;;;18.43;62.76;93735.00;5071704;28;20569;-47
2021/08/12 02:12:56;;;;;;;10.82;6.95;;;;;;;18.49;62.51;93748.72;5053701;28;20023;-47
2021/08/12 02:15:22;;;;;;;15.65;7.38;;;;;;;18.47;62.97;93743.72;5071870;28;20032;-47
2021/08/12 02:17:47;;;;;;;8.43;7.63;;;;;;;18.42;63.29;93744.00;5071802;28;20527;-48
2021/08/12 02:20:15;;;;;;;12.82;8.35;;;;;;;18.28;63.79;93746.53;5071585;28;20494;-48
2021/08/12 02:22:50;;;;;;;13.02;8.48;;;;;;;18.23;63.65;93736.41;5071285;28;20102;-47
2021/08/12 02:25:24;;;;;;;12.30;9.95;;;;;;;18.19;64.33;93741.72;5053547;28;20057;-48
2021/08/12 02:27:49;;;;;;;23.95;12.65;;;;;;;17.97;64.50;93718.53;5053715;28;20032;-48
2021/08/12 02:30:15;;;;;;;16.98;11.30;;;;;;;17.89;65.28;93748.66;5053767;28;20044;-48
2021/08/12 02:32:42;;;;;;;14.27;10.93;;;;;;;17.83;66.07;93747.47;5051677;28;20025;-50
2021/08/12 02:35:09;;;;;;;16.08;10.38;;;;;;;17.88;65.93;93757.63;5050377;28;20051;-51
2021/08/12 02:37:35;;;;;;;13.50;9.13;;;;;;;17.97;64.68;93738.06;5050365;28;20025;-51
2021/08/12 02:40:00;;;;;;;12.23;8.55;;;;;;;17.86;64.95;93749.84;5083958;28;20078;-49
2021/08/12 02:42:26;;;;;;;11.70;9.13;;;;;;;18.00;64.97;93752.91;5050143;28;20025;-49
2021/08/12 02:44:52;;;;;;;16.33;9.65;;;;;;;17.99;65.27;93751.44;5050085;28;20021;-48
2021/08/12 02:47:19;;;;;;;14.85;9.52;;;;;;;17.89;64.90;93753.50;5050080;28;20086;-53
2021/08/12 02:49:46;;;;;;;11.85;8.38;;;;;;;17.77;65.20;93755.44;5051151;28;20032;-55
2021/08/12 02:52:13;;;;;;;13.07;7.75;;;;;;;17.80;65.17;93757.78;5051105;28;20036;-48
2021/08/12 02:54:39;;;;;;;11.35;8.90;;;;;;;17.94;64.63;93758.06;5050978;28;20070;-51
2021/08/12 02:57:05;;;;;;;11.48;7.93;;;;;;;17.77;65.00;93764.56;5082719;28;20036;-49
2021/08/12 02:59:31;;;;;;;12.63;8.57;;;;;;;17.80;65.32;93757.78;5049502;28;20528;-50
2021/08/12 03:01:57;;;;;;;13.27;8.98;;;;;;;17.88;64.33;93771.59;5050685;28;20123;-56
2021/08/12 03:04:23;;;;;;;45.72;10.07;;;;;;;17.87;64.00;93770.84;5049731;28;20029;-51
2021/08/12 03:06:52;;;;;;;22.05;9.13;;;;;;;17.91;63.50;93771.16;5049647;28;20452;-49
2021/08/12 03:09:20;;;;;;;19.08;8.80;;;;;;;17.89;63.88;93764.66;5050834;28;20090;-50
2021/08/12 03:11:45;;;;;;;10.45;8.68;;;;;;;17.79;64.27;93763.97;5049618;28;20028;-48
2021/08/12 03:14:11;;;;;;;14.30;8.25;;;;;;;17.74;65.11;93751.75;5032701;28;20082;-51
2021/08/12 03:16:38;;;;;;;19.20;9.68;;;;;;;17.64;66.06;93767.03;5080444;28;20029;-48
2021/08/12 03:19:04;;;;;;;13.85;9.48;;;;;;;17.69;65.81;93766.75;5070684;28;20040;-49
2021/08/12 03:21:29;;;;;;;14.60;9.50;;;;;;;17.44;66.17;93764.22;5070047;28;20028;-48
2021/08/12 03:24:01;;;;;;;13.32;9.32;;;;;;;17.32;66.49;93770.97;5070499;28;20066;-47
2021/08/12 03:26:26;;;;;;;14.90;9.95;;;;;;;17.39;66.34;93767.28;5068121;28;20021;-49
2021/08/12 03:28:52;;;;;;;13.88;10.07;;;;;;;17.57;66.82;93763.06;5070365;28;20031;-48
2021/08/12 03:31:17;;;;;;;11.43;9.35;;;;;;;17.31;66.20;93767.44;5070325;28;20402;-48
2021/08/12 03:33:42;;;;;;;15.98;9.45;;;;;;;17.38;65.93;93768.63;5068942;28;20036;-55
2021/08/12 03:36:08;;;;;;;12.40;8.98;;;;;;;17.51;65.43;93773.06;5067484;28;20039;-49
2021/08/12 03:38:34;;;;;;;103.57;14.13;;;;;;;17.57;65.25;93779.81;5063478;28;20070;-49
2021/08/12 03:41:00;;;;;;;43.10;10.77;;;;;;;17.41;65.69;93773.03;5045974;28;20024;-48
2021/08/12 03:43:25;;;;;;;13.23;9.82;;;;;;;17.20;66.51;93779.16;5046501;28;20058;-50
2021/08/12 03:45:51;;;;;;;11.23;9.15;;;;;;;17.07;66.84;93768.41;5045976;28;20031;-47
2021/08/12 03:48:16;;;;;;;14.43;9.88;;;;;;;17.07;66.74;93774.00;5046279;28;20029;-50
2021/08/12 03:50:42;;;;;;;13.60;10.15;;;;;;;17.18;66.88;93783.84;5044980;28;20024;-48
2021/08/12 03:53:07;;;;;;;11.88;10.43;;;;;;;17.33;66.36;93786.38;5047441;28;20029;-47
2021/08/12 03:55:32;;;;;;;11.40;10.20;;;;;;;17.41;66.74;93784.22;5047402;28;20021;-48
2021/08/12 03:57:58;;;;;;;13.80;10.02;;;;;;;17.29;66.50;93780.50;5047667;28;20033;-48
2021/08/12 04:00:23;;;;;;;14.13;10.25;;;;;;;17.32;66.72;93779.34;5047526;28;20898;-49
2021/08/12 04:02:49;;;;;;;28.45;15.75;;;;;;;17.38;66.76;93783.31;5047367;28;20048;-47
2021/08/12 04:05:14;;;;;;;33.38;10.40;;;;;;;17.19;67.42;93791.66;5047496;28;20049;-48
2021/08/12 04:07:40;;;;;;;13.13;9.32;;;;;;;17.08;67.38;93795.00;5047727;28;20060;-47
2021/08/12 04:10:06;;;;;;;13.10;8.60;;;;;;;17.29;66.80;93798.00;5047240;28;20490;-47
2021/08/12 04:12:31;;;;;;;14.10;8.30;;;;;;;17.39;65.87;93792.41;5057435;28;20102;-49
2021/08/12 04:14:57;;;;;;;11.68;8.52;;;;;;;17.46;66.82;93799.91;5067403;28;20027;-48
2021/08/12 04:17:23;;;;;;;14.35;9.05;;;;;;;17.44;65.94;93791.38;5067220;28;20024;-47
2021/08/12 04:19:48;;;;;;;18.05;10.35;;;;;;;17.41;66.15;93790.50;5067774;28;20029;-49
2021/08/12 04:22:13;;;;;;;13.68;8.88;;;;;;;17.50;66.62;93796.72;5067428;28;20102;-47
2021/08/12 04:24:40;;;;;;;14.75;9.48;;;;;;;17.50;66.42;93796.72;5067512;28;20044;-50
2021/08/12 04:27:06;;;;;;;14.00;9.60;;;;;;;17.56;65.70;93806.28;5067676;28;20687;-51
2021/08/12 04:29:31;;;;;;;115.93;16.00;;;;;;;17.55;65.77;93812.44;5067681;28;20422;-50
2021/08/12 04:31:57;;;;;;;18.10;9.65;;;;;;;17.41;66.40;93807.25;5067188;28;20711;-49
2021/08/12 04:34:23;;;;;;;26.67;10.82;;;;;;;17.59;66.01;93807.91;5066985;28;20036;-49
2021/08/12 04:36:48;;;;;;;17.95;9.57;;;;;;;17.71;66.70;93808.06;5067096;28;20077;-48
2021/08/12 04:39:14;;;;;;;11.57;9.77;;;;;;;17.79;66.68;93803.78;5066795;28;20036;-48
2021/08/12 04:41:39;;;;;;;15.18;9.77;;;;;;;17.77;67.19;93817.63;5067257;28;20020;-48
2021/08/12 04:44:05;;;;;;;11.98;10.13;;;;;;;17.71;68.13;93814.38;5048729;28;20469;-49
2021/08/12 04:46:30;;;;;;;13.05;10.35;;;;;;;17.84;68.35;93822.34;5067264;28;20040;-48
2021/08/12 04:48:56;;;;;;;25.17;23.38;;;;;;;17.98;67.99;93820.56;5066575;28;20020;-49
2021/08/12 04:51:21;;;;;;;28.35;26.05;;;;;;;18.08;67.79;93826.16;5065510;28;20040;-47
2021/08/12 04:53:46;;;;;;;24.08;12.63;;;;;;;18.22;68.36;93818.03;5066940;28;20027;-47
2021/08/12 04:56:12;;;;;;;18.08;13.00;;;;;;;18.28;68.05;93827.59;5066990;28;20478;-48
2021/08/12 04:58:37;;;;;;;20.00;13.38;;;;;;;18.34;68.01;93824.50;5066671;28;20481;-48
2021/08/12 05:01:03;;;;;;;19.30;17.38;;;;;;;18.34;67.13;93818.91;5066383;28;20024;-47
2021/08/12 05:03:28;;;;;;;15.82;13.60;;;;;;;18.50;66.72;93834.03;5066214;28;20059;-49
2021/08/12 05:06:04;;;;;;;14.73;12.38;;;;;;;18.60;67.05;93823.59;5066130;28;20032;-51
2021/08/12 05:08:30;;;;;;;14.85;12.70;;;;;;;18.68;67.38;93822.09;5066541;28;20036;-53
2021/08/12 05:10:55;;;;;;;18.27;11.85;;;;;;;18.77;67.59;93820.59;5068748;28;20017;-52
2021/08/12 05:13:21;;;;;;;14.73;11.70;;;;;;;18.82;67.23;93823.06;5071970;28;20486;-53
2021/08/12 05:15:47;;;;;;;14.80;11.05;;;;;;;18.90;67.54;93823.66;5072183;28;20028;-51
2021/08/12 05:18:12;;;;;;;54.47;13.23;;;;;;;19.00;67.40;93832.00;5072532;28;20059;-50
2021/08/12 05:20:37;;;;;;;16.15;11.55;;;;;;;19.12;67.05;93832.84;5072518;28;20505;-52
2021/08/12 05:23:04;;;;;;;12.10;10.88;;;;;;;19.09;67.11;93820.03;5071989;28;20052;-47
2021/08/12 05:25:30;;;;;;;14.27;11.88;;;;;;;19.34;67.13;93831.56;5069558;28;20135;-53
2021/08/12 05:27:56;;;;;;;18.42;12.55;;;;;;;19.36;66.34;93831.69;5072282;28;20517;-54
2021/08/12 05:30:22;;;;;;;24.20;11.75;;;;;;;19.44;66.07;93835.06;5072091;28;20107;-52
2021/08/12 05:32:47;;;;;;;20.77;10.82;;;;;;;19.56;66.30;93841.47;5072136;28;20019;-52
2021/08/12 05:35:12;;;;;;;15.38;11.13;;;;;;;19.67;66.33;93840.06;5071953;28;20009;-52
2021/08/12 05:37:38;;;;;;;16.60;10.40;;;;;;;19.76;66.29;93842.06;5071809;28;20028;-48
2021/08/12 05:40:04;;;;;;;11.70;10.57;;;;;;;19.81;66.26;93837.47;5072154;28;20028;-49
2021/08/12 05:42:30;;;;;;;15.07;10.52;;;;;;;19.98;65.80;93846.34;5069016;28;20101;-52
2021/08/12 05:44:55;;;;;;;14.57;9.40;;;;;;;20.06;66.21;93854.53;5071753;28;20032;-49
2021/08/12 05:47:21;;;;;;;10.10;9.15;;;;;;;20.11;66.00;93853.47;5071700;28;20025;-49
2021/08/12 05:49:46;;;;;;;11.43;9.40;;;;;;;20.24;66.33;93844.53;5071909;28;20021;-50
2021/08/12 05:52:12;;;;;;;123.30;18.33;;;;;;;20.38;66.28;93853.84;5071624;28;20035;-52
2021/08/12 05:54:37;;;;;;;50.70;12.23;;;;;;;20.45;66.50;93857.78;5071795;28;20020;-50
2021/08/12 05:57:03;;;;;;;18.02;10.02;;;;;;;20.54;66.25;93857.69;5071970;28;20074;-49
2021/08/12 05:59:28;;;;;;;15.05;10.20;;;;;;;20.69;66.59;93862.13;5071100;28;20024;-50
2021/08/12 06:01:54;;;;;;;12.35;9.95;;;;;;;20.81;66.21;93855.19;5071797;28;20023;-49
2021/08/12 06:04:19;;;;;;;38.28;10.45;;;;;;;20.94;65.32;93863.03;5071563;28;20405;-50
2021/08/12 06:06:45;;;;;;;36.20;10.27;;;;;;;21.08;65.18;93863.22;5071746;28;20021;-51
2021/08/12 06:09:10;;;;;;;34.00;10.00;;;;;;;21.11;65.44;93859.91;5068704;28;20089;-48
2021/08/12 06:11:36;;;;;;;21.02;9.32;;;;;;;21.24;64.55;93855.78;5071257;28;20028;-52
2021/08/12 06:14:01;;;;;;;11.48;8.82;;;;;;;21.22;64.39;93847.25;5070921;28;20025;-50
2021/08/12 06:16:27;;;;;;;9.45;8.00;;;;;;;21.49;63.41;93860.78;5071494;28;20016;-49
2021/08/12 06:18:52;;;;;;;9.52;8.60;;;;;;;21.64;65.09;93858.22;5071363;28;20017;-51
2021/08/12 06:21:20;;;;;;;11.98;9.13;;;;;;;21.72;63.60;93860.78;5070717;28;20485;-50
2021/08/12 06:23:45;;;;;;;9.50;8.55;;;;;;;21.85;63.91;93860.19;5069936;28;20024;-49
2021/08/12 06:26:11;;;;;;;9.88;8.40;;;;;;;21.94;63.24;93858.59;5071126;28;20027;-50
2021/08/12 06:28:36;;;;;;;9.23;8.23;;;;;;;21.96;62.73;93856.59;5071246;28;20025;-51
2021/08/12 06:31:02;;;;;;;12.70;8.85;;;;;;;21.98;62.60;93856.75;5070865;28;20490;-50
2021/08/12 06:33:28;;;;;;;37.83;10.93;;;;;;;22.05;63.35;93860.63;5070824;28;20016;-50
2021/08/12 06:35:53;;;;;;;8.95;8.15;;;;;;;22.18;61.97;93862.78;5071071;28;20126;-51
2021/08/12 06:38:18;;;;;;;12.15;7.97;;;;;;;22.25;61.21;93865.34;5070695;28;20029;-53
2021/08/12 06:40:44;;;;;;;8.77;7.88;;;;;;;22.37;60.88;93870.94;5070744;28;20019;-50
2021/08/12 06:43:10;;;;;;;14.32;9.73;;;;;;;22.39;61.27;93865.41;5067817;28;20036;-53
2021/08/12 06:45:35;;;;;;;15.57;10.07;;;;;;;22.50;61.00;93867.47;5070941;28;20013;-50
2021/08/12 06:48:03;;;;;;;12.75;9.50;;;;;;;22.59;60.75;93860.94;5069290;28;20021;-52
2021/08/12 06:50:29;;;;;;;11.40;8.80;;;;;;;22.73;60.48;93864.56;5069576;28;20026;-52
2021/08/12 06:52:54;;;;;;;12.93;8.27;;;;;;;22.95;60.54;93867.88;5069572;28;20417;-49
2021/08/12 06:55:20;;;;;;;11.00;9.00;;;;;;;23.08;58.70;93861.53;5069373;28;20025;-51
2021/08/12 06:57:45;;;;;;;12.15;8.82;;;;;;;23.15;58.66;93868.97;5069061;28;20028;-50
2021/08/12 07:00:12;;;;;;;9.70;8.80;;;;;;;23.25;59.79;93861.06;5069442;28;20020;-52
2021/08/12 07:02:38;;;;;;;10.52;8.88;;;;;;;23.27;57.95;93856.28;5069442;28;20107;-48
2021/08/12 07:05:04;;;;;;;10.43;9.35;;;;;;;23.32;57.79;93846.66;5068856;28;20048;-53
2021/08/12 07:07:29;;;;;;;14.50;8.65;;;;;;;23.42;58.33;93860.59;5069376;28;20102;-49
2021/08/12 07:09:55;;;;;;;20.02;10.15;;;;;;;23.58;58.65;93866.34;5069131;28;20405;-51
2021/08/12 07:12:20;;;;;;;26.70;10.50;;;;;;;23.70;57.63;93858.53;5068679;28;20052;-54
2021/08/12 07:14:46;;;;;;;16.65;11.63;;;;;;;23.87;57.32;93861.56;5069321;28;20013;-50
2021/08/12 07:17:11;;;;;;;11.02;9.90;;;;;;;24.05;56.80;93862.50;5068820;28;20028;-52
2021/08/12 07:19:37;;;;;;;14.70;10.93;;;;;;;24.33;55.77;93859.63;5069213;28;20032;-50
2021/08/12 07:22:03;;;;;;;22.70;11.35;;;;;;;24.76;54.42;93863.94;5068610;28;20044;-49
2021/08/12 07:24:28;;;;;;;14.75;13.48;;;;;;;25.10;53.04;93872.59;5069075;28;20027;-57
2021/08/12 07:26:54;;;;;;;17.88;13.20;;;;;;;25.26;51.34;93850.72;5068739;28;20473;-59
2021/08/12 07:29:19;;;;;;;24.48;16.67;;;;;;;25.59;52.24;93864.97;5068368;28;20032;-48
2021/08/12 07:31:45;;;;;;;22.00;15.13;;;;;;;25.77;50.87;93865.06;5067679;28;20071;-51
2021/08/12 07:34:12;;;;;;;13.85;11.25;;;;;;;26.00;49.34;93862.56;5066564;28;20028;-52
2021/08/12 07:36:38;;;;;;;16.27;12.75;;;;;;;26.15;49.37;93863.91;5068533;28;20024;-50
2021/08/12 07:39:05;;;;;;;12.68;9.43;;;;;;;27.19;46.35;93858.28;5068532;28;20421;-51
2021/08/12 07:41:32;;;;;;;34.80;21.13;;;;;;;28.43;43.57;93840.19;5066557;28;20384;-52
2021/08/12 07:43:57;;;;;;;148.70;67.32;;;;;;;30.46;39.22;93864.88;5068578;28;20099;-47
2021/08/12 07:46:24;;;;;;;459.02;194.68;;;;;;;31.29;36.99;93865.56;5069231;28;20104;-49
2021/08/12 07:48:49;;;;;;;557.00;262.90;;;;;;;32.31;34.48;93866.34;5069382;28;20505;-52
2021/08/12 07:51:15;;;;;;;1073.28;530.70;;;;;;;34.21;31.28;93861.56;5069064;28;20036;-48
2021/08/12 07:53:41;;;;;;;1703.13;783.88;;;;;;;34.93;30.09;93867.38;5068569;28;20044;-49
2021/08/12 07:56:06;;;;;;;1999.90;954.08;;;;;;;34.19;29.83;93873.72;5068328;28;20477;-53
2021/08/12 07:58:32;;;;;;;1999.90;993.60;;;;;;;33.22;31.54;93873.72;5068608;28;20024;-51
2021/08/12 08:00:57;;;;;;;1999.90;993.33;;;;;;;32.38;33.24;93872.91;5068480;28;20047;-52
2021/08/12 08:03:22;;;;;;;1999.90;957.58;;;;;;;31.69;34.42;93887.88;5068593;28;20024;-57
2021/08/12 08:05:48;;;;;;;1989.22;900.53;;;;;;;31.00;36.09;93888.38;5068273;28;20040;-57
2021/08/12 08:08:13;;;;;;;1906.88;819.58;;;;;;;30.62;37.11;93876.69;5068312;28;20032;-54
2021/08/12 08:10:39;;;;;;;1597.68;707.95;;;;;;;30.29;37.63;93880.06;5068244;28;20028;-54
2021/08/12 08:13:05;;;;;;;1525.05;694.13;;;;;;;30.04;37.62;93886.47;5067530;28;20081;-55
2021/08/12 08:15:30;;;;;;;1362.82;613.28;;;;;;;29.83;38.56;93882.31;5067955;28;20024;-52
2021/08/12 08:17:56;;;;;;;1171.38;541.65;;;;;;;29.49;38.71;93869.88;5068106;28;20074;-49
2021/08/12 08:20:22;;;;;;;1051.00;489.77;;;;;;;29.39;39.88;93875.28;5067932;28;20020;-55
2021/08/12 08:22:47;;;;;;;834.22;386.20;;;;;;;30.30;39.68;93879.38;5067749;28;20131;-54
2021/08/12 08:25:13;;;;;;;600.08;274.63;;;;;;;31.64;35.54;93880.63;5068025;28;20134;-52
2021/08/12 08:27:39;;;;;;;900.90;421.25;;;;;;;31.02;36.06;93882.72;5068585;28;20444;-52
2021/08/12 08:30:05;;;;;;;855.80;411.85;;;;;;;29.91;39.23;93882.53;5067976;28;20024;-54
2021/08/12 08:32:32;;;;;;;750.58;371.10;;;;;;;29.82;39.50;93875.88;5067967;28;20020;-55
2021/08/12 08:34:57;;;;;;;838.03;385.00;;;;;;;29.68;38.84;93875.47;5068050;28;20013;-56
2021/08/12 08:37:23;;;;;;;759.38;375.88;;;;;;;29.43;39.90;93878.97;5067647;28;20531;-55
2021/08/12 08:39:48;;;;;;;697.33;326.95;;;;;;;29.58;39.48;93875.16;5068012;28;20021;-53
2021/08/12 08:42:15;;;;;;;638.40;302.92;;;;;;;29.55;39.08;93867.22;5070549;28;20619;-53
2021/08/12 08:44:45;;;;;;;473.95;214.35;;;;;;;29.36;39.67;93865.22;5071811;28;20028;-51
2021/08/12 08:47:10;;;;;;;407.35;197.98;;;;;;;28.82;40.64;93861.34;5066207;28;20024;-55
2021/08/12 08:49:41;;;;;;;435.60;218.90;;;;;;;28.95;42.06;93863.22;5073074;28;20025;-53
2021/08/12 08:52:10;;;;;;;370.73;180.40;;;;;;;28.85;42.60;93857.91;5072968;28;20512;-56
2021/08/12 08:54:38;;;;;;;455.20;200.20;;;;;;;28.75;41.30;93871.81;5072982;28;20100;-55
2021/08/12 08:57:05;;;;;;;428.02;198.85;;;;;;;28.70;42.22;93858.09;5072848;28;20025;-55
2021/08/12 08:59:33;;;;;;;401.83;188.13;;;;;;;28.71;41.48;93865.25;5073124;28;20017;-55
2021/08/12 09:01:58;;;;;;;332.13;165.55;;;;;;;28.94;41.11;93864.59;5073091;28;20074;-56
2021/08/12 09:04:24;;;;;;;459.30;224.10;;;;;;;30.64;37.93;93859.66;5054908;28;20476;-56
2021/08/12 09:06:49;;;;;;;659.85;330.25;;;;;;;31.16;35.83;93851.69;5054782;28;20024;-54
2021/08/12 09:09:14;;;;;;;1025.10;495.45;;;;;;;31.02;35.84;93860.63;5072975;28;20074;-54
2021/08/12 09:11:40;;;;;;;1161.68;556.45;;;;;;;30.80;35.38;93862.91;5072768;28;20027;-54
2021/08/12 09:14:31;;;;;;;1269.70;598.10;;;;;;;30.68;35.82;93860.47;5072587;28;20520;-54
2021/08/12 09:16:57;;;;;;;1116.82;537.63;;;;;;;30.63;36.78;93861.03;5065094;28;20017;-54
2021/08/12 09:19:24;;;;;;;1140.18;537.95;;;;;;;31.48;35.96;93860.28;5072285;28;20028;-54
2021/08/12 09:21:59;;;;;;;1146.15;560.10;;;;;;;33.93;31.76;93853.31;5072570;28;20048;-54
2021/08/12 09:24:25;;;;;;;1648.80;794.92;;;;;;;35.32;27.13;93851.22;5072622;28;20020;-54
2021/08/12 09:26:51;;;;;;;1997.05;912.22;;;;;;;35.12;26.01;93856.78;5072088;28;20409;-54
2021/08/12 09:29:28;;;;;;;1999.90;999.90;;;;;;;34.61;27.46;93852.72;5072472;28;20071;-54
2021/08/12 09:32:01;;;;;;;1999.90;999.90;;;;;;;34.01;26.73;93849.84;5069854;28;20409;-55
2021/08/12 09:34:40;;;;;;;1999.90;999.90;;;;;;;33.08;27.63;93851.31;5072371;28;20036;-54
2021/08/12 09:37:07;;;;;;;1999.90;974.53;;;;;;;32.59;28.17;93849.75;5072314;28;20021;-54
2021/08/12 09:39:34;;;;;;;1987.43;876.22;;;;;;;32.89;27.16;93844.56;5069568;28;20158;-53
2021/08/12 09:42:00;;;;;;;1832.43;849.22;;;;;;;33.00;25.45;93841.88;5071777;28;20019;-54
2021/08/12 09:44:44;;;;;;;1883.95;866.85;;;;;;;33.07;28.05;93840.56;5071829;28;20052;-55
2021/08/12 09:47:09;;;;;;;982.97;461.65;;;;;;;33.19;29.68;93846.47;5071772;28;20024;-50
2021/08/12 09:49:38;;;;;;;1578.63;714.22;;;;;;;32.52;31.15;93816.75;5071781;28;20020;-54
2021/08/12 09:52:27;;;;;;;1608.07;760.08;;;;;;;32.55;31.37;93846.81;5072064;28;20074;-54
2021/08/12 09:55:08;;;;;;;1641.45;745.78;;;;;;;31.98;32.69;93842.13;5069044;28;20016;-53
2021/08/12 09:57:55;;;;;;;1335.30;616.17;;;;;;;31.24;32.68;93846.91;5069261;28;20020;-55
2021/08/12 10:00:42;;;;;;;1223.28;582.80;;;;;;;30.73;33.72;93849.91;5053579;28;20750;-54
2021/08/12 10:03:25;;;;;;;993.83;478.20;;;;;;;30.23;34.05;93854.25;5070984;28;20027;-56
2021/08/12 10:05:52;;;;;;;726.35;347.27;;;;;;;30.01;34.78;93856.47;5071593;28;20044;-56
2021/08/12 10:08:38;;;;;;;409.55;189.32;;;;;;;29.75;35.12;93860.06;5071488;28;20021;-56
2021/08/12 10:11:23;;;;;;;605.28;294.27;;;;;;;29.52;35.14;93845.81;5070479;28;20459;-56
2021/08/12 10:14:00;;;;;;;513.47;235.18;;;;;;;29.54;34.38;93849.41;5070883;28;20089;-56
2021/08/12 10:16:27;;;;;;;417.88;200.27;;;;;;;29.45;33.39;93847.75;5071719;28;20095;-56
2021/08/12 10:18:54;;;;;;;595.40;297.35;;;;;;;29.35;33.73;93850.28;5068859;28;20031;-55
2021/08/12 10:21:19;;;;;;;565.17;267.85;;;;;;;29.27;35.87;93823.69;5071000;28;20036;-53
2021/08/12 10:23:47;;;;;;;624.95;286.55;;;;;;;29.49;32.78;93850.72;5071482;28;20082;-54
2021/08/12 10:26:13;;;;;;;596.22;282.88;;;;;;;29.89;31.27;93851.16;5050461;28;20028;-54
2021/08/12 10:28:42;;;;;;;619.13;310.23;;;;;;;31.77;28.21;93837.38;5071252;28;20287;-57
2021/08/12 10:31:08;;;;;;;1110.72;539.25;;;;;;;32.10;27.01;93835.91;5070992;28;20070;-55
2021/08/12 10:33:35;;;;;;;1276.97;636.10;;;;;;;32.30;27.17;93849.88;5061783;28;20020;-54
2021/08/12 10:36:02;;;;;;;1528.25;711.85;;;;;;;32.36;27.65;93849.97;5070797;28;20059;-54
2021/08/12 10:38:27;;;;;;;1309.63;625.08;;;;;;;32.34;26.47;93850.69;5071043;28;20104;-53
2021/08/12 10:40:54;;;;;;;1745.00;788.58;;;;;;;31.71;27.47;93859.34;5070703;28;20562;-55
2021/08/12 10:43:22;;;;;;;1389.60;670.10;;;;;;;31.38;28.45;93866.47;5052593;28;20034;-55
2021/08/12 10:46:01;;;;;;;1417.53;648.28;;;;;;;30.79;30.48;93866.44;5066737;28;20017;-55
2021/08/12 10:48:29;;;;;;;1355.47;657.58;;;;;;;30.59;30.64;93873.06;5068845;28;20023;-53
2021/08/12 10:51:10;;;;;;;1223.22;548.90;;;;;;;30.55;30.86;93863.69;5071182;28;20161;-52
2021/08/12 10:53:36;;;;;;;871.85;435.27;;;;;;;30.83;30.58;93861.56;5069730;28;20464;-56
2021/08/12 10:56:15;;;;;;;739.22;355.52;;;;;;;32.52;28.70;93853.91;5070720;28;20031;-56
2021/08/12 10:58:43;;;;;;;1162.93;539.35;;;;;;;34.48;25.16;93856.84;5070992;28;20024;-57
2021/08/12 11:01:35;;;;;;;1598.68;725.60;;;;;;;33.57;25.36;93856.38;5068251;28;20013;-56
2021/08/12 11:04:04;;;;;;;1633.45;750.70;;;;;;;32.62;26.98;93851.22;5069302;28;20067;-53
2021/08/12 11:06:40;;;;;;;1674.75;775.90;;;;;;;32.52;26.72;93847.47;5069928;28;20081;-54
2021/08/12 11:09:08;;;;;;;1386.88;670.88;;;;;;;32.68;26.06;93834.16;5070026;28;20028;-55
2021/08/12 11:11:33;;;;;;;875.70;409.75;;;;;;;33.53;25.31;93850.59;5069965;28;20498;-54
2021/08/12 11:14:04;;;;;;;1599.63;755.95;;;;;;;33.90;25.20;93837.50;5069356;28;20089;-57
2021/08/12 11:16:41;;;;;;;1602.95;765.47;;;;;;;34.83;23.49;93850.03;5068053;28;20031;-57